Aviation Digital Data Service (ADDS)

Output produced by METARs form (2009 UTC 15 October 2018)
found at http://www.aviationweather.gov/metar/data/
 
METAR text: NTAA 152000Z 27004KT 9999 FEW053 29/21 Q1016 NOSIG
Conditions at: NTAA (TAHITI-FAAA POLY, WS) observed 2000 UTC 15 October 2018
Temperature: 29.0°C (84°F)
Dewpoint: 21.0°C (70°F) [RH = 62%]
Pressure (altimeter): 30.00 inches Hg (1016.0 mb)
Winds: from the W (270 degrees) at 5 MPH (4 knots; 2.1 m/s)
Visibility: 6 or more miles (10+ km)
Ceiling: at least 12,000 feet AGL
Clouds: few clouds at 5300 feet AGL
Weather: no significant weather observed at this time

METAR text: NTAA 151930Z 33003KT 9999 FEW053 28/21 Q1016 NOSIG
Conditions at: NTAA (TAHITI-FAAA POLY, WS) observed 1930 UTC 15 October 2018
Temperature: 28.0°C (82°F)
Dewpoint: 21.0°C (70°F) [RH = 66%]
Pressure (altimeter): 30.00 inches Hg (1016.0 mb)
Winds: from the NNW (330 degrees) at 3 MPH (3 knots; 1.5 m/s)
Visibility: 6 or more miles (10+ km)
Ceiling: at least 12,000 feet AGL
Clouds: few clouds at 5300 feet AGL
Weather: no significant weather observed at this time

METAR text: NTAA 151900Z 32004KT 9999 FEW053 28/22 Q1016 NOSIG
Conditions at: NTAA (TAHITI-FAAA POLY, WS) observed 1900 UTC 15 October 2018
Temperature: 28.0°C (82°F)
Dewpoint: 22.0°C (72°F) [RH = 70%]
Pressure (altimeter): 30.00 inches Hg (1016.0 mb)
Winds: from the NW (320 degrees) at 5 MPH (4 knots; 2.1 m/s)
Visibility: 6 or more miles (10+ km)
Ceiling: at least 12,000 feet AGL
Clouds: few clouds at 5300 feet AGL
Weather: no significant weather observed at this time

METAR text: NTAA 151830Z 30004KT 9999 FEW053 27/22 Q1016 NOSIG
Conditions at: NTAA (TAHITI-FAAA POLY, WS) observed 1830 UTC 15 October 2018
Temperature: 27.0°C (81°F)
Dewpoint: 22.0°C (72°F) [RH = 74%]
Pressure (altimeter): 30.00 inches Hg (1016.0 mb)
Winds: from the WNW (300 degrees) at 5 MPH (4 knots; 2.1 m/s)
Visibility: 6 or more miles (10+ km)
Ceiling: at least 12,000 feet AGL
Clouds: few clouds at 5300 feet AGL
Weather: no significant weather observed at this time

METAR text: NTAA 151800Z 25004KT 9999 FEW053 27/21 Q1016 NOSIG
Conditions at: NTAA (TAHITI-FAAA POLY, WS) observed 1800 UTC 15 October 2018
Temperature: 27.0°C (81°F)
Dewpoint: 21.0°C (70°F) [RH = 70%]
Pressure (altimeter): 30.00 inches Hg (1016.0 mb)
Winds: from the WSW (250 degrees) at 5 MPH (4 knots; 2.1 m/s)
Visibility: 6 or more miles (10+ km)
Ceiling: at least 12,000 feet AGL
Clouds: few clouds at 5300 feet AGL
Weather: no significant weather observed at this time

METAR text: NTAA 151739Z VRB02KT 9999 FEW053 27/21 Q1016 NOSIG
Conditions at: NTAA (TAHITI-FAAA POLY, WS) observed 1739 UTC 15 October 2018
Temperature: 27.0°C (81°F)
Dewpoint: 21.0°C (70°F) [RH = 70%]
Pressure (altimeter): 30.00 inches Hg (1016.0 mb)
Winds: variable direction winds at 2 MPH (2 knots; 1.0 m/s)
Visibility: 6 or more miles (10+ km)
Ceiling: at least 12,000 feet AGL
Clouds: few clouds at 5300 feet AGL
Weather: no significant weather observed at this time

METAR text: NTAA 151700Z VRB02KT 9999 FEW053 26/21 Q1016 NOSIG
Conditions at: NTAA (TAHITI-FAAA POLY, WS) observed 1700 UTC 15 October 2018
Temperature: 26.0°C (79°F)
Dewpoint: 21.0°C (70°F) [RH = 74%]
Pressure (altimeter): 30.00 inches Hg (1016.0 mb)
Winds: variable direction winds at 2 MPH (2 knots; 1.0 m/s)
Visibility: 6 or more miles (10+ km)
Ceiling: at least 12,000 feet AGL
Clouds: few clouds at 5300 feet AGL
Weather: no significant weather observed at this time

METAR text: NTAA 151630Z VRB01KT 9999 FEW053 25/21 Q1015 NOSIG
Conditions at: NTAA (TAHITI-FAAA POLY, WS) observed 1630 UTC 15 October 2018
Temperature: 25.0°C (77°F)
Dewpoint: 21.0°C (70°F) [RH = 79%]
Pressure (altimeter): 29.97 inches Hg (1015.0 mb)
Winds: variable direction winds at 1 MPH (1 knots; 0.5 m/s)
Visibility: 6 or more miles (10+ km)
Ceiling: at least 12,000 feet AGL
Clouds: few clouds at 5300 feet AGL
Weather: no significant weather observed at this time

METAR text: NTAA 151600Z 11004KT 9999 FEW053 23/20 Q1015 NOSIG
Conditions at: NTAA (TAHITI-FAAA POLY, WS) observed 1600 UTC 15 October 2018
Temperature: 23.0°C (73°F)
Dewpoint: 20.0°C (68°F) [RH = 83%]
Pressure (altimeter): 29.97 inches Hg (1015.0 mb)
Winds: from the ESE (110 degrees) at 5 MPH (4 knots; 2.1 m/s)
Visibility: 6 or more miles (10+ km)
Ceiling: at least 12,000 feet AGL
Clouds: few clouds at 5300 feet AGL
Weather: no significant weather observed at this time

METAR text: NTAA 151530Z AUTO 11004KT 9999 NCD 23/20 Q1014
Conditions at: NTAA (TAHITI-FAAA POLY, WS) observed 1530 UTC 15 October 2018
Temperature: 23.0°C (73°F)
Dewpoint: 20.0°C (68°F) [RH = 83%]
Pressure (altimeter): 29.94 inches Hg (1014.0 mb)
Winds: from the ESE (110 degrees) at 5 MPH (4 knots; 2.1 m/s)
Visibility: 6 or more miles (10+ km)
Ceiling: at least 12,000 feet AGL
Clouds: sky clear below 12,000 feet AGL
Weather: no significant weather observed at this time

METAR text: NTAA 151500Z AUTO 11004KT CAVOK 23/20 Q1014
Conditions at: NTAA (TAHITI-FAAA POLY, WS) observed 1500 UTC 15 October 2018
Temperature: 23.0°C (73°F)
Dewpoint: 20.0°C (68°F) [RH = 83%]
Pressure (altimeter): 29.94 inches Hg (1014.0 mb)
Winds: from the ESE (110 degrees) at 5 MPH (4 knots; 2.1 m/s)
Visibility: 6 or more miles (10+ km)
Ceiling: ceiling and visibility are OK
Clouds: unknown
Weather: no significant weather observed at this time

METAR text: NTAA 151430Z AUTO 11004KT CAVOK 23/19 Q1014
Conditions at: NTAA (TAHITI-FAAA POLY, WS) observed 1430 UTC 15 October 2018
Temperature: 23.0°C (73°F)
Dewpoint: 19.0°C (66°F) [RH = 78%]
Pressure (altimeter): 29.94 inches Hg (1014.0 mb)
Winds: from the ESE (110 degrees) at 5 MPH (4 knots; 2.1 m/s)
Visibility: 6 or more miles (10+ km)
Ceiling: ceiling and visibility are OK
Clouds: unknown
Weather: no significant weather observed at this time

METAR text: NTAA 151400Z AUTO 12003KT CAVOK 23/19 Q1014
Conditions at: NTAA (TAHITI-FAAA POLY, WS) observed 1400 UTC 15 October 2018
Temperature: 23.0°C (73°F)
Dewpoint: 19.0°C (66°F) [RH = 78%]
Pressure (altimeter): 29.94 inches Hg (1014.0 mb)
Winds: from the ESE (120 degrees) at 3 MPH (3 knots; 1.5 m/s)
Visibility: 6 or more miles (10+ km)
Ceiling: ceiling and visibility are OK
Clouds: unknown
Weather: no significant weather observed at this time

METAR text: NTAA 151330Z AUTO 12003KT CAVOK 23/19 Q1013
Conditions at: NTAA (TAHITI-FAAA POLY, WS) observed 1330 UTC 15 October 2018
Temperature: 23.0°C (73°F)
Dewpoint: 19.0°C (66°F) [RH = 78%]
Pressure (altimeter): 29.91 inches Hg (1013.0 mb)
Winds: from the ESE (120 degrees) at 3 MPH (3 knots; 1.5 m/s)
Visibility: 6 or more miles (10+ km)
Ceiling: ceiling and visibility are OK
Clouds: unknown
Weather: no significant weather observed at this time

METAR text: NTAA 151304Z 12003KT 9999 FEW023 23/19 Q1013 NOSIG
Conditions at: NTAA (TAHITI-FAAA POLY, WS) observed 1304 UTC 15 October 2018
Temperature: 23.0°C (73°F)
Dewpoint: 19.0°C (66°F) [RH = 78%]
Pressure (altimeter): 29.91 inches Hg (1013.0 mb)
Winds: from the ESE (120 degrees) at 3 MPH (3 knots; 1.5 m/s)
Visibility: 6 or more miles (10+ km)
Ceiling: at least 12,000 feet AGL
Clouds: few clouds at 2300 feet AGL
Weather: no significant weather observed at this time

METAR text: NTAA 151200Z 10004KT 9999 FEW023 23/20 Q1014 NOSIG
Conditions at: NTAA (TAHITI-FAAA POLY, WS) observed 1200 UTC 15 October 2018
Temperature: 23.0°C (73°F)
Dewpoint: 20.0°C (68°F) [RH = 83%]
Pressure (altimeter): 29.94 inches Hg (1014.0 mb)
Winds: from the E (100 degrees) at 5 MPH (4 knots; 2.1 m/s)
Visibility: 6 or more miles (10+ km)
Ceiling: at least 12,000 feet AGL
Clouds: few clouds at 2300 feet AGL
Weather: no significant weather observed at this time

METAR text: NTAA 151100Z 10003KT 9999 FEW023 24/20 Q1015 NOSIG
Conditions at: NTAA (TAHITI-FAAA POLY, WS) observed 1100 UTC 15 October 2018
Temperature: 24.0°C (75°F)
Dewpoint: 20.0°C (68°F) [RH = 78%]
Pressure (altimeter): 29.97 inches Hg (1015.0 mb)
Winds: from the E (100 degrees) at 3 MPH (3 knots; 1.5 m/s)
Visibility: 6 or more miles (10+ km)
Ceiling: at least 12,000 feet AGL
Clouds: few clouds at 2300 feet AGL
Weather: no significant weather observed at this time

METAR text: NTAA 151030Z 18003KT 9999 FEW023 24/20 Q1015 NOSIG
Conditions at: NTAA (TAHITI-FAAA POLY, WS) observed 1030 UTC 15 October 2018
Temperature: 24.0°C (75°F)
Dewpoint: 20.0°C (68°F) [RH = 78%]
Pressure (altimeter): 29.97 inches Hg (1015.0 mb)
Winds: from the S (180 degrees) at 3 MPH (3 knots; 1.5 m/s)
Visibility: 6 or more miles (10+ km)
Ceiling: at least 12,000 feet AGL
Clouds: few clouds at 2300 feet AGL
Weather: no significant weather observed at this time

METAR text: NTAA 150930Z 00000KT 9999 FEW023 25/20 Q1016 NOSIG
Conditions at: NTAA (TAHITI-FAAA POLY, WS) observed 0930 UTC 15 October 2018
Temperature: 25.0°C (77°F)
Dewpoint: 20.0°C (68°F) [RH = 74%]
Pressure (altimeter): 30.00 inches Hg (1016.0 mb)
Winds: calm
Visibility: 6 or more miles (10+ km)
Ceiling: at least 12,000 feet AGL
Clouds: few clouds at 2300 feet AGL
Weather: no significant weather observed at this time

METAR text: NTAA 150900Z 18002KT 9999 FEW023 25/20 Q1016 NOSIG
Conditions at: NTAA (TAHITI-FAAA POLY, WS) observed 0900 UTC 15 October 2018
Temperature: 25.0°C (77°F)
Dewpoint: 20.0°C (68°F) [RH = 74%]
Pressure (altimeter): 30.00 inches Hg (1016.0 mb)
Winds: from the S (180 degrees) at 2 MPH (2 knots; 1.0 m/s)
Visibility: 6 or more miles (10+ km)
Ceiling: at least 12,000 feet AGL
Clouds: few clouds at 2300 feet AGL
Weather: no significant weather observed at this time

METAR text: NTAA 150830Z 09003KT 9999 FEW023 25/20 Q1016 NOSIG
Conditions at: NTAA (TAHITI-FAAA POLY, WS) observed 0830 UTC 15 October 2018
Temperature: 25.0°C (77°F)
Dewpoint: 20.0°C (68°F) [RH = 74%]
Pressure (altimeter): 30.00 inches Hg (1016.0 mb)
Winds: from the E (90 degrees) at 3 MPH (3 knots; 1.5 m/s)
Visibility: 6 or more miles (10+ km)
Ceiling: at least 12,000 feet AGL
Clouds: few clouds at 2300 feet AGL
Weather: no significant weather observed at this time

METAR text: NTAA 150800Z 08003KT 9999 FEW023 25/21 Q1016 NOSIG
Conditions at: NTAA (TAHITI-FAAA POLY, WS) observed 0800 UTC 15 October 2018
Temperature: 25.0°C (77°F)
Dewpoint: 21.0°C (70°F) [RH = 79%]
Pressure (altimeter): 30.00 inches Hg (1016.0 mb)
Winds: from the E (80 degrees) at 3 MPH (3 knots; 1.5 m/s)
Visibility: 6 or more miles (10+ km)
Ceiling: at least 12,000 feet AGL
Clouds: few clouds at 2300 feet AGL
Weather: no significant weather observed at this time

METAR text: NTAA 150730Z 09003KT 9999 FEW023 25/21 Q1017 NOSIG
Conditions at: NTAA (TAHITI-FAAA POLY, WS) observed 0730 UTC 15 October 2018
Temperature: 25.0°C (77°F)
Dewpoint: 21.0°C (70°F) [RH = 79%]
Pressure (altimeter): 30.03 inches Hg (1017.0 mb)
Winds: from the E (90 degrees) at 3 MPH (3 knots; 1.5 m/s)
Visibility: 6 or more miles (10+ km)
Ceiling: at least 12,000 feet AGL
Clouds: few clouds at 2300 feet AGL
Weather: no significant weather observed at this time

METAR text: NTAA 150630Z 10003KT 9999 FEW020 26/21 Q1017 NOSIG
Conditions at: NTAA (TAHITI-FAAA POLY, WS) observed 0630 UTC 15 October 2018
Temperature: 26.0°C (79°F)
Dewpoint: 21.0°C (70°F) [RH = 74%]
Pressure (altimeter): 30.03 inches Hg (1017.0 mb)
Winds: from the E (100 degrees) at 3 MPH (3 knots; 1.5 m/s)
Visibility: 6 or more miles (10+ km)
Ceiling: at least 12,000 feet AGL
Clouds: few clouds at 2000 feet AGL
Weather: no significant weather observed at this time

METAR text: NTAA 150600Z 05003KT 020V080 9999 FEW020 26/21 Q1017 NOSIG
Conditions at: NTAA (TAHITI-FAAA POLY, WS) observed 0600 UTC 15 October 2018
Temperature: 26.0°C (79°F)
Dewpoint: 21.0°C (70°F) [RH = 74%]
Pressure (altimeter): 30.03 inches Hg (1017.0 mb)
Winds: from the NE (50 degrees) at 3 MPH (3 knots; 1.5 m/s)
Visibility: 6 or more miles (10+ km)
Ceiling: at least 12,000 feet AGL
Clouds: few clouds at 2000 feet AGL
Weather: no significant weather observed at this time

METAR text: NTAA 150530Z 06005KT 9999 FEW020 26/21 Q1016 NOSIG
Conditions at: NTAA (TAHITI-FAAA POLY, WS) observed 0530 UTC 15 October 2018
Temperature: 26.0°C (79°F)
Dewpoint: 21.0°C (70°F) [RH = 74%]
Pressure (altimeter): 30.00 inches Hg (1016.0 mb)
Winds: from the ENE (60 degrees) at 6 MPH (5 knots; 2.6 m/s)
Visibility: 6 or more miles (10+ km)
Ceiling: at least 12,000 feet AGL
Clouds: few clouds at 2000 feet AGL
Weather: no significant weather observed at this time

METAR text: NTAA 150500Z VRB03KT 9999 FEW020 SCT043 27/21 Q1016 NOSIG
Conditions at: NTAA (TAHITI-FAAA POLY, WS) observed 0500 UTC 15 October 2018
Temperature: 27.0°C (81°F)
Dewpoint: 21.0°C (70°F) [RH = 70%]
Pressure (altimeter): 30.00 inches Hg (1016.0 mb)
Winds: variable direction winds at 3 MPH (3 knots; 1.5 m/s)
Visibility: 6 or more miles (10+ km)
Ceiling: at least 12,000 feet AGL
Clouds: few clouds at 2000 feet AGL
scattered clouds at 4300 feet AGL
Weather: no significant weather observed at this time

METAR text: NTAA 150430Z 21004KT 9999 VCSH SCT020 27/22 Q1016 NOSIG
Conditions at: NTAA (TAHITI-FAAA POLY, WS) observed 0430 UTC 15 October 2018
Temperature: 27.0°C (81°F)
Dewpoint: 22.0°C (72°F) [RH = 74%]
Pressure (altimeter): 30.00 inches Hg (1016.0 mb)
Winds: from the SSW (210 degrees) at 5 MPH (4 knots; 2.1 m/s)
Visibility: 6 or more miles (10+ km)
Ceiling: at least 12,000 feet AGL
Clouds: scattered clouds at 2000 feet AGL
Weather: VCSH  (showers in vicinity)

METAR text: NTAA 150400Z 20006KT 9999 VCSH SCT023 27/22 Q1015 NOSIG
Conditions at: NTAA (TAHITI-FAAA POLY, WS) observed 0400 UTC 15 October 2018
Temperature: 27.0°C (81°F)
Dewpoint: 22.0°C (72°F) [RH = 74%]
Pressure (altimeter): 29.97 inches Hg (1015.0 mb)
Winds: from the SSW (200 degrees) at 7 MPH (6 knots; 3.1 m/s)
Visibility: 6 or more miles (10+ km)
Ceiling: at least 12,000 feet AGL
Clouds: scattered clouds at 2300 feet AGL
Weather: VCSH  (showers in vicinity)

METAR text: NTAA 150330Z 24008KT 180V280 9999 FEW020 BKN050 27/22 Q1015 NOSIG
Conditions at: NTAA (TAHITI-FAAA POLY, WS) observed 0330 UTC 15 October 2018
Temperature: 27.0°C (81°F)
Dewpoint: 22.0°C (72°F) [RH = 74%]
Pressure (altimeter): 29.97 inches Hg (1015.0 mb)
Winds: from the WSW (240 degrees) at 9 MPH (8 knots; 4.1 m/s)
Visibility: 6 or more miles (10+ km)
Ceiling: 5000 feet AGL
Clouds: few clouds at 2000 feet AGL
broken clouds at 5000 feet AGL
Weather: no significant weather observed at this time

METAR text: NTAA 150300Z 29005KT 240V340 9999 FEW020 BKN050 28/22 Q1015 NOSIG
Conditions at: NTAA (TAHITI-FAAA POLY, WS) observed 0300 UTC 15 October 2018
Temperature: 28.0°C (82°F)
Dewpoint: 22.0°C (72°F) [RH = 70%]
Pressure (altimeter): 29.97 inches Hg (1015.0 mb)
Winds: from the WNW (290 degrees) at 6 MPH (5 knots; 2.6 m/s)
Visibility: 6 or more miles (10+ km)
Ceiling: 5000 feet AGL
Clouds: few clouds at 2000 feet AGL
broken clouds at 5000 feet AGL
Weather: no significant weather observed at this time

METAR text: NTAA 150230Z 23006KT 200V270 9999 VCSH FEW020 BKN050 28/21 Q1015 NOSIG
Conditions at: NTAA (TAHITI-FAAA POLY, WS) observed 0230 UTC 15 October 2018
Temperature: 28.0°C (82°F)
Dewpoint: 21.0°C (70°F) [RH = 66%]
Pressure (altimeter): 29.97 inches Hg (1015.0 mb)
Winds: from the SW (230 degrees) at 7 MPH (6 knots; 3.1 m/s)
Visibility: 6 or more miles (10+ km)
Ceiling: 5000 feet AGL
Clouds: few clouds at 2000 feet AGL
broken clouds at 5000 feet AGL
Weather: VCSH  (showers in vicinity)

METAR text: NTAA 150200Z 22011KT 9999 FEW020 BKN050 28/22 Q1014 NOSIG
Conditions at: NTAA (TAHITI-FAAA POLY, WS) observed 0200 UTC 15 October 2018
Temperature: 28.0°C (82°F)
Dewpoint: 22.0°C (72°F) [RH = 70%]
Pressure (altimeter): 29.94 inches Hg (1014.0 mb)
Winds: from the SW (220 degrees) at 13 MPH (11 knots; 5.7 m/s)
Visibility: 6 or more miles (10+ km)
Ceiling: 5000 feet AGL
Clouds: few clouds at 2000 feet AGL
broken clouds at 5000 feet AGL
Weather: no significant weather observed at this time

METAR text: NTAA 150130Z 23012KT 9999 FEW020 SCT050 29/22 Q1014 NOSIG
Conditions at: NTAA (TAHITI-FAAA POLY, WS) observed 0130 UTC 15 October 2018
Temperature: 29.0°C (84°F)
Dewpoint: 22.0°C (72°F) [RH = 66%]
Pressure (altimeter): 29.94 inches Hg (1014.0 mb)
Winds: from the SW (230 degrees) at 14 MPH (12 knots; 6.2 m/s)
Visibility: 6 or more miles (10+ km)
Ceiling: at least 12,000 feet AGL
Clouds: few clouds at 2000 feet AGL
scattered clouds at 5000 feet AGL
Weather: no significant weather observed at this time

METAR text: NTAA 150100Z 26006KT 9999 FEW020 SCT050 30/22 Q1014 NOSIG
Conditions at: NTAA (TAHITI-FAAA POLY, WS) observed 0100 UTC 15 October 2018
Temperature: 30.0°C (86°F)
Dewpoint: 22.0°C (72°F) [RH = 62%]
Pressure (altimeter): 29.94 inches Hg (1014.0 mb)
Winds: from the W (260 degrees) at 7 MPH (6 knots; 3.1 m/s)
Visibility: 6 or more miles (10+ km)
Ceiling: at least 12,000 feet AGL
Clouds: few clouds at 2000 feet AGL
scattered clouds at 5000 feet AGL
Weather: no significant weather observed at this time

METAR text: NTAA 150030Z 26006KT 9999 FEW020 BKN050 30/23 Q1015 NOSIG
Conditions at: NTAA (TAHITI-FAAA POLY, WS) observed 0030 UTC 15 October 2018
Temperature: 30.0°C (86°F)
Dewpoint: 23.0°C (73°F) [RH = 66%]
Pressure (altimeter): 29.97 inches Hg (1015.0 mb)
Winds: from the W (260 degrees) at 7 MPH (6 knots; 3.1 m/s)
Visibility: 6 or more miles (10+ km)
Ceiling: 5000 feet AGL
Clouds: few clouds at 2000 feet AGL
broken clouds at 5000 feet AGL
Weather: no significant weather observed at this time

METAR text: NTAA 150000Z 24009KT 9999 FEW020 BKN050 29/22 Q1015 NOSIG
Conditions at: NTAA (TAHITI-FAAA POLY, WS) observed 0000 UTC 15 October 2018
Temperature: 29.0°C (84°F)
Dewpoint: 22.0°C (72°F) [RH = 66%]
Pressure (altimeter): 29.97 inches Hg (1015.0 mb)
Winds: from the WSW (240 degrees) at 10 MPH (9 knots; 4.6 m/s)
Visibility: 6 or more miles (10+ km)
Ceiling: 5000 feet AGL
Clouds: few clouds at 2000 feet AGL
broken clouds at 5000 feet AGL
Weather: no significant weather observed at this time

METAR text: NTAA 142330Z 25007KT 9999 FEW020 BKN050 29/21 Q1015 NOSIG
Conditions at: NTAA (TAHITI-FAAA POLY, WS) observed 2330 UTC 14 October 2018
Temperature: 29.0°C (84°F)
Dewpoint: 21.0°C (70°F) [RH = 62%]
Pressure (altimeter): 29.97 inches Hg (1015.0 mb)
Winds: from the WSW (250 degrees) at 8 MPH (7 knots; 3.6 m/s)
Visibility: 6 or more miles (10+ km)
Ceiling: 5000 feet AGL
Clouds: few clouds at 2000 feet AGL
broken clouds at 5000 feet AGL
Weather: no significant weather observed at this time

METAR text: NTAA 142300Z 26005KT 9999 FEW020 30/22 Q1015 NOSIG
Conditions at: NTAA (TAHITI-FAAA POLY, WS) observed 2300 UTC 14 October 2018
Temperature: 30.0°C (86°F)
Dewpoint: 22.0°C (72°F) [RH = 62%]
Pressure (altimeter): 29.97 inches Hg (1015.0 mb)
Winds: from the W (260 degrees) at 6 MPH (5 knots; 2.6 m/s)
Visibility: 6 or more miles (10+ km)
Ceiling: at least 12,000 feet AGL
Clouds: few clouds at 2000 feet AGL
Weather: no significant weather observed at this time

METAR text: NTAA 142230Z 26006KT 9999 FEW020 30/22 Q1016 NOSIG
Conditions at: NTAA (TAHITI-FAAA POLY, WS) observed 2230 UTC 14 October 2018
Temperature: 30.0°C (86°F)
Dewpoint: 22.0°C (72°F) [RH = 62%]
Pressure (altimeter): 30.00 inches Hg (1016.0 mb)
Winds: from the W (260 degrees) at 7 MPH (6 knots; 3.1 m/s)
Visibility: 6 or more miles (10+ km)
Ceiling: at least 12,000 feet AGL
Clouds: few clouds at 2000 feet AGL
Weather: no significant weather observed at this time

METAR text: NTAA 142200Z 24007KT 9999 FEW020 SCT050 29/22 Q1016 NOSIG
Conditions at: NTAA (TAHITI-FAAA POLY, WS) observed 2200 UTC 14 October 2018
Temperature: 29.0°C (84°F)
Dewpoint: 22.0°C (72°F) [RH = 66%]
Pressure (altimeter): 30.00 inches Hg (1016.0 mb)
Winds: from the WSW (240 degrees) at 8 MPH (7 knots; 3.6 m/s)
Visibility: 6 or more miles (10+ km)
Ceiling: at least 12,000 feet AGL
Clouds: few clouds at 2000 feet AGL
scattered clouds at 5000 feet AGL
Weather: no significant weather observed at this time

METAR text: NTAA 142130Z 24009KT 9999 FEW020 SCT050 28/22 Q1017 NOSIG
Conditions at: NTAA (TAHITI-FAAA POLY, WS) observed 2130 UTC 14 October 2018
Temperature: 28.0°C (82°F)
Dewpoint: 22.0°C (72°F) [RH = 70%]
Pressure (altimeter): 30.03 inches Hg (1017.0 mb)
Winds: from the WSW (240 degrees) at 10 MPH (9 knots; 4.6 m/s)
Visibility: 6 or more miles (10+ km)
Ceiling: at least 12,000 feet AGL
Clouds: few clouds at 2000 feet AGL
scattered clouds at 5000 feet AGL
Weather: no significant weather observed at this time

METAR text: NTAA 142100Z 24009KT 9999 FEW020 28/22 Q1017 NOSIG
Conditions at: NTAA (TAHITI-FAAA POLY, WS) observed 2100 UTC 14 October 2018
Temperature: 28.0°C (82°F)
Dewpoint: 22.0°C (72°F) [RH = 70%]
Pressure (altimeter): 30.03 inches Hg (1017.0 mb)
Winds: from the WSW (240 degrees) at 10 MPH (9 knots; 4.6 m/s)
Visibility: 6 or more miles (10+ km)
Ceiling: at least 12,000 feet AGL
Clouds: few clouds at 2000 feet AGL
Weather: no significant weather observed at this time

METAR text: NTAA 142030Z 24007KT 9999 FEW020 BKN050 28/22 Q1017 NOSIG
Conditions at: NTAA (TAHITI-FAAA POLY, WS) observed 2030 UTC 14 October 2018
Temperature: 28.0°C (82°F)
Dewpoint: 22.0°C (72°F) [RH = 70%]
Pressure (altimeter): 30.03 inches Hg (1017.0 mb)
Winds: from the WSW (240 degrees) at 8 MPH (7 knots; 3.6 m/s)
Visibility: 6 or more miles (10+ km)
Ceiling: 5000 feet AGL
Clouds: few clouds at 2000 feet AGL
broken clouds at 5000 feet AGL
Weather: no significant weather observed at this time

METAR text: NTAA 142000Z 25005KT 9999 FEW020 BKN050 29/22 Q1017 NOSIG
Conditions at: NTAA (TAHITI-FAAA POLY, WS) observed 2000 UTC 14 October 2018
Temperature: 29.0°C (84°F)
Dewpoint: 22.0°C (72°F) [RH = 66%]
Pressure (altimeter): 30.03 inches Hg (1017.0 mb)
Winds: from the WSW (250 degrees) at 6 MPH (5 knots; 2.6 m/s)
Visibility: 6 or more miles (10+ km)
Ceiling: 5000 feet AGL
Clouds: few clouds at 2000 feet AGL
broken clouds at 5000 feet AGL
Weather: no significant weather observed at this time

METAR text: NTAA 141930Z 30005KT 260V330 9999 FEW023 28/23 Q1017 NOSIG
Conditions at: NTAA (TAHITI-FAAA POLY, WS) observed 1930 UTC 14 October 2018
Temperature: 28.0°C (82°F)
Dewpoint: 23.0°C (73°F) [RH = 74%]
Pressure (altimeter): 30.03 inches Hg (1017.0 mb)
Winds: from the WNW (300 degrees) at 6 MPH (5 knots; 2.6 m/s)
Visibility: 6 or more miles (10+ km)
Ceiling: at least 12,000 feet AGL
Clouds: few clouds at 2300 feet AGL
Weather: no significant weather observed at this time

METAR text: NTAA 141900Z 32004KT 9999 FEW023 28/22 Q1017 NOSIG
Conditions at: NTAA (TAHITI-FAAA POLY, WS) observed 1900 UTC 14 October 2018
Temperature: 28.0°C (82°F)
Dewpoint: 22.0°C (72°F) [RH = 70%]
Pressure (altimeter): 30.03 inches Hg (1017.0 mb)
Winds: from the NW (320 degrees) at 5 MPH (4 knots; 2.1 m/s)
Visibility: 6 or more miles (10+ km)
Ceiling: at least 12,000 feet AGL
Clouds: few clouds at 2300 feet AGL
Weather: no significant weather observed at this time

METAR text: NTAA 141830Z 28002KT 9999 FEW023 27/22 Q1017 NOSIG
Conditions at: NTAA (TAHITI-FAAA POLY, WS) observed 1830 UTC 14 October 2018
Temperature: 27.0°C (81°F)
Dewpoint: 22.0°C (72°F) [RH = 74%]
Pressure (altimeter): 30.03 inches Hg (1017.0 mb)
Winds: from the W (280 degrees) at 2 MPH (2 knots; 1.0 m/s)
Visibility: 6 or more miles (10+ km)
Ceiling: at least 12,000 feet AGL
Clouds: few clouds at 2300 feet AGL
Weather: no significant weather observed at this time

METAR text: NTAA 141800Z VRB03KT 9999 FEW023 27/22 Q1017 NOSIG
Conditions at: NTAA (TAHITI-FAAA POLY, WS) observed 1800 UTC 14 October 2018
Temperature: 27.0°C (81°F)
Dewpoint: 22.0°C (72°F) [RH = 74%]
Pressure (altimeter): 30.03 inches Hg (1017.0 mb)
Winds: variable direction winds at 3 MPH (3 knots; 1.5 m/s)
Visibility: 6 or more miles (10+ km)
Ceiling: at least 12,000 feet AGL
Clouds: few clouds at 2300 feet AGL
Weather: no significant weather observed at this time

METAR text: NTAA 141730Z VRB02KT 9999 FEW020 27/22 Q1017 NOSIG
Conditions at: NTAA (TAHITI-FAAA POLY, WS) observed 1730 UTC 14 October 2018
Temperature: 27.0°C (81°F)
Dewpoint: 22.0°C (72°F) [RH = 74%]
Pressure (altimeter): 30.03 inches Hg (1017.0 mb)
Winds: variable direction winds at 2 MPH (2 knots; 1.0 m/s)
Visibility: 6 or more miles (10+ km)
Ceiling: at least 12,000 feet AGL
Clouds: few clouds at 2000 feet AGL
Weather: no significant weather observed at this time

METAR text: NTAA 141700Z VRB01KT 9999 FEW020 26/22 Q1017 NOSIG
Conditions at: NTAA (TAHITI-FAAA POLY, WS) observed 1700 UTC 14 October 2018
Temperature: 26.0°C (79°F)
Dewpoint: 22.0°C (72°F) [RH = 79%]
Pressure (altimeter): 30.03 inches Hg (1017.0 mb)
Winds: variable direction winds at 1 MPH (1 knots; 0.5 m/s)
Visibility: 6 or more miles (10+ km)
Ceiling: at least 12,000 feet AGL
Clouds: few clouds at 2000 feet AGL
Weather: no significant weather observed at this time

METAR text: NTAA 141630Z 17002KT 9999 FEW020 25/22 Q1016 NOSIG
Conditions at: NTAA (TAHITI-FAAA POLY, WS) observed 1630 UTC 14 October 2018
Temperature: 25.0°C (77°F)
Dewpoint: 22.0°C (72°F) [RH = 83%]
Pressure (altimeter): 30.00 inches Hg (1016.0 mb)
Winds: from the S (170 degrees) at 2 MPH (2 knots; 1.0 m/s)
Visibility: 6 or more miles (10+ km)
Ceiling: at least 12,000 feet AGL
Clouds: few clouds at 2000 feet AGL
Weather: no significant weather observed at this time

METAR text: NTAA 141600Z 18003KT 9999 FEW020 24/21 Q1016 NOSIG
Conditions at: NTAA (TAHITI-FAAA POLY, WS) observed 1600 UTC 14 October 2018
Temperature: 24.0°C (75°F)
Dewpoint: 21.0°C (70°F) [RH = 83%]
Pressure (altimeter): 30.00 inches Hg (1016.0 mb)
Winds: from the S (180 degrees) at 3 MPH (3 knots; 1.5 m/s)
Visibility: 6 or more miles (10+ km)
Ceiling: at least 12,000 feet AGL
Clouds: few clouds at 2000 feet AGL
Weather: no significant weather observed at this time

METAR text: NTAA 141530Z AUTO 16004KT CAVOK 24/21 Q1016
Conditions at: NTAA (TAHITI-FAAA POLY, WS) observed 1530 UTC 14 October 2018
Temperature: 24.0°C (75°F)
Dewpoint: 21.0°C (70°F) [RH = 83%]
Pressure (altimeter): 30.00 inches Hg (1016.0 mb)
Winds: from the SSE (160 degrees) at 5 MPH (4 knots; 2.1 m/s)
Visibility: 6 or more miles (10+ km)
Ceiling: ceiling and visibility are OK
Clouds: unknown
Weather: no significant weather observed at this time

METAR text: NTAA 141500Z AUTO VRB02KT CAVOK 24/21 Q1016
Conditions at: NTAA (TAHITI-FAAA POLY, WS) observed 1500 UTC 14 October 2018
Temperature: 24.0°C (75°F)
Dewpoint: 21.0°C (70°F) [RH = 83%]
Pressure (altimeter): 30.00 inches Hg (1016.0 mb)
Winds: variable direction winds at 2 MPH (2 knots; 1.0 m/s)
Visibility: 6 or more miles (10+ km)
Ceiling: ceiling and visibility are OK
Clouds: unknown
Weather: no significant weather observed at this time

METAR text: NTAA 141430Z AUTO 09004KT 040V130 9999 FEW018 24/21 Q1016
Conditions at: NTAA (TAHITI-FAAA POLY, WS) observed 1430 UTC 14 October 2018
Temperature: 24.0°C (75°F)
Dewpoint: 21.0°C (70°F) [RH = 83%]
Pressure (altimeter): 30.00 inches Hg (1016.0 mb)
Winds: from the E (90 degrees) at 5 MPH (4 knots; 2.1 m/s)
Visibility: 6 or more miles (10+ km)
Ceiling: at least 12,000 feet AGL
Clouds: few clouds at 1800 feet AGL
Weather: no significant weather observed at this time

METAR text: NTAA 141400Z AUTO 12001KT CAVOK 24/21 Q1015
Conditions at: NTAA (TAHITI-FAAA POLY, WS) observed 1400 UTC 14 October 2018
Temperature: 24.0°C (75°F)
Dewpoint: 21.0°C (70°F) [RH = 83%]
Pressure (altimeter): 29.97 inches Hg (1015.0 mb)
Winds: from the ESE (120 degrees) at 1 MPH (1 knots; 0.5 m/s)
Visibility: 6 or more miles (10+ km)
Ceiling: ceiling and visibility are OK
Clouds: unknown
Weather: no significant weather observed at this time

METAR text: NTAA 141330Z AUTO VRB02KT 9999 FEW017 25/21 Q1015
Conditions at: NTAA (TAHITI-FAAA POLY, WS) observed 1330 UTC 14 October 2018
Temperature: 25.0°C (77°F)
Dewpoint: 21.0°C (70°F) [RH = 79%]
Pressure (altimeter): 29.97 inches Hg (1015.0 mb)
Winds: variable direction winds at 2 MPH (2 knots; 1.0 m/s)
Visibility: 6 or more miles (10+ km)
Ceiling: at least 12,000 feet AGL
Clouds: few clouds at 1700 feet AGL
Weather: no significant weather observed at this time

METAR text: NTAA 141300Z VRB02KT 9999 FEW016 25/21 Q1015 NOSIG
Conditions at: NTAA (TAHITI-FAAA POLY, WS) observed 1300 UTC 14 October 2018
Temperature: 25.0°C (77°F)
Dewpoint: 21.0°C (70°F) [RH = 79%]
Pressure (altimeter): 29.97 inches Hg (1015.0 mb)
Winds: variable direction winds at 2 MPH (2 knots; 1.0 m/s)
Visibility: 6 or more miles (10+ km)
Ceiling: at least 12,000 feet AGL
Clouds: few clouds at 1600 feet AGL
Weather: no significant weather observed at this time

METAR text: NTAA 141230Z 19003KT 160V220 9999 FEW018 25/21 Q1015 NOSIG
Conditions at: NTAA (TAHITI-FAAA POLY, WS) observed 1230 UTC 14 October 2018
Temperature: 25.0°C (77°F)
Dewpoint: 21.0°C (70°F) [RH = 79%]
Pressure (altimeter): 29.97 inches Hg (1015.0 mb)
Winds: from the S (190 degrees) at 3 MPH (3 knots; 1.5 m/s)
Visibility: 6 or more miles (10+ km)
Ceiling: at least 12,000 feet AGL
Clouds: few clouds at 1800 feet AGL
Weather: no significant weather observed at this time

METAR text: NTAA 141200Z 00000KT 9999 FEW020 25/21 Q1016 NOSIG
Conditions at: NTAA (TAHITI-FAAA POLY, WS) observed 1200 UTC 14 October 2018
Temperature: 25.0°C (77°F)
Dewpoint: 21.0°C (70°F) [RH = 79%]
Pressure (altimeter): 30.00 inches Hg (1016.0 mb)
Winds: calm
Visibility: 6 or more miles (10+ km)
Ceiling: at least 12,000 feet AGL
Clouds: few clouds at 2000 feet AGL
Weather: no significant weather observed at this time

METAR text: NTAA 141130Z 00000KT 9999 FEW020 25/21 Q1016 NOSIG
Conditions at: NTAA (TAHITI-FAAA POLY, WS) observed 1130 UTC 14 October 2018
Temperature: 25.0°C (77°F)
Dewpoint: 21.0°C (70°F) [RH = 79%]
Pressure (altimeter): 30.00 inches Hg (1016.0 mb)
Winds: calm
Visibility: 6 or more miles (10+ km)
Ceiling: at least 12,000 feet AGL
Clouds: few clouds at 2000 feet AGL
Weather: no significant weather observed at this time

METAR text: NTAA 141100Z VRB02KT 9999 FEW020 SCT040 25/21 Q1016 NOSIG
Conditions at: NTAA (TAHITI-FAAA POLY, WS) observed 1100 UTC 14 October 2018
Temperature: 25.0°C (77°F)
Dewpoint: 21.0°C (70°F) [RH = 79%]
Pressure (altimeter): 30.00 inches Hg (1016.0 mb)
Winds: variable direction winds at 2 MPH (2 knots; 1.0 m/s)
Visibility: 6 or more miles (10+ km)
Ceiling: at least 12,000 feet AGL
Clouds: few clouds at 2000 feet AGL
scattered clouds at 4000 feet AGL
Weather: no significant weather observed at this time

METAR text: NTAA 141030Z 32006KT 9999 FEW020 SCT040 26/22 Q1016 NOSIG
Conditions at: NTAA (TAHITI-FAAA POLY, WS) observed 1030 UTC 14 October 2018
Temperature: 26.0°C (79°F)
Dewpoint: 22.0°C (72°F) [RH = 79%]
Pressure (altimeter): 30.00 inches Hg (1016.0 mb)
Winds: from the NW (320 degrees) at 7 MPH (6 knots; 3.1 m/s)
Visibility: 6 or more miles (10+ km)
Ceiling: at least 12,000 feet AGL
Clouds: few clouds at 2000 feet AGL
scattered clouds at 4000 feet AGL
Weather: no significant weather observed at this time

METAR text: NTAA 141000Z 32007KT 9999 FEW020 26/22 Q1017 NOSIG
Conditions at: NTAA (TAHITI-FAAA POLY, WS) observed 1000 UTC 14 October 2018
Temperature: 26.0°C (79°F)
Dewpoint: 22.0°C (72°F) [RH = 79%]
Pressure (altimeter): 30.03 inches Hg (1017.0 mb)
Winds: from the NW (320 degrees) at 8 MPH (7 knots; 3.6 m/s)
Visibility: 6 or more miles (10+ km)
Ceiling: at least 12,000 feet AGL
Clouds: few clouds at 2000 feet AGL
Weather: no significant weather observed at this time

METAR text: NTAA 140930Z VRB03KT 9999 FEW020 SCT043 26/22 Q1017 NOSIG
Conditions at: NTAA (TAHITI-FAAA POLY, WS) observed 0930 UTC 14 October 2018
Temperature: 26.0°C (79°F)
Dewpoint: 22.0°C (72°F) [RH = 79%]
Pressure (altimeter): 30.03 inches Hg (1017.0 mb)
Winds: variable direction winds at 3 MPH (3 knots; 1.5 m/s)
Visibility: 6 or more miles (10+ km)
Ceiling: at least 12,000 feet AGL
Clouds: few clouds at 2000 feet AGL
scattered clouds at 4300 feet AGL
Weather: no significant weather observed at this time

METAR text: NTAA 140900Z 24005KT 9999 FEW021 26/22 Q1017 NOSIG
Conditions at: NTAA (TAHITI-FAAA POLY, WS) observed 0900 UTC 14 October 2018
Temperature: 26.0°C (79°F)
Dewpoint: 22.0°C (72°F) [RH = 79%]
Pressure (altimeter): 30.03 inches Hg (1017.0 mb)
Winds: from the WSW (240 degrees) at 6 MPH (5 knots; 2.6 m/s)
Visibility: 6 or more miles (10+ km)
Ceiling: at least 12,000 feet AGL
Clouds: few clouds at 2100 feet AGL
Weather: no significant weather observed at this time

METAR text: NTAA 140830Z 30003KT 9999 FEW021 SCT036 26/22 Q1017 NOSIG
Conditions at: NTAA (TAHITI-FAAA POLY, WS) observed 0830 UTC 14 October 2018
Temperature: 26.0°C (79°F)
Dewpoint: 22.0°C (72°F) [RH = 79%]
Pressure (altimeter): 30.03 inches Hg (1017.0 mb)
Winds: from the WNW (300 degrees) at 3 MPH (3 knots; 1.5 m/s)
Visibility: 6 or more miles (10+ km)
Ceiling: at least 12,000 feet AGL
Clouds: few clouds at 2100 feet AGL
scattered clouds at 3600 feet AGL
Weather: no significant weather observed at this time

Forecast for: NTAA (TAHITI-FAAA POLY, WS)
Text: TAF NTAA 151700Z 1518/1624 VRB05KT 9999 FEW023
Forecast period: 1800 UTC 15 October 2018 to 0000 UTC 17 October 2018
Forecast type: FROM: standard forecast or significant change
Winds: variable direction winds at 6 MPH (5 knots; 2.6 m/s)
Visibility: 6 or more miles 10+ km)
Ceiling: at least 12,000 feet AGL
Clouds: few clouds at 2300 feet AGL
Weather: no significant weather forecast for this period